Time,TemperatureF,DewpointF,PressureIn,WindDirection,WindDirectionDegrees,WindSpeedMPH,WindSpeedGustMPH,Humidity,HourlyPrecipIn,Conditions,Clouds,dailyrainin,SoftwareType,DateUTC
2013-07-10 00:05:00,74.7,72.2,29.74,SSW,197,0.0,1.0,92,0.00,,,0.24,Wunderground v.1.13,2013-07-10 05:05:00,
2013-07-10 00:15:00,74.4,71.9,29.75,SSW,197,0.0,1.0,92,0.00,,,0.24,Wunderground v.1.13,2013-07-10 05:15:00,
2013-07-10 00:20:00,74.4,72.2,29.75,SSW,197,0.0,1.0,93,0.00,,,0.24,Wunderground v.1.13,2013-07-10 05:20:00,
2013-07-10 00:30:00,74.2,72.0,29.74,SSW,197,0.0,1.0,93,0.00,,,0.24,Wunderground v.1.13,2013-07-10 05:30:00,
2013-07-10 00:40:00,74.0,72.2,29.74,SSW,197,0.0,0.0,94,0.00,,,0.24,Wunderground v.1.13,2013-07-10 05:40:00,
2013-07-10 00:50:00,73.9,72.1,29.74,SSW,197,0.0,0.0,94,0.00,,,0.24,Wunderground v.1.13,2013-07-10 05:50:00,
2013-07-10 00:55:00,73.9,72.1,29.74,SSW,197,0.0,0.0,94,0.00,,,0.24,Wunderground v.1.13,2013-07-10 05:55:00,
2013-07-10 01:05:00,73.7,71.9,29.73,SSW,197,0.0,0.0,94,0.00,,,0.24,Wunderground v.1.13,2013-07-10 06:05:00,
2013-07-10 01:15:00,73.5,71.7,29.73,SSW,197,0.0,0.0,94,0.00,,,0.24,Wunderground v.1.13,2013-07-10 06:15:00,
2013-07-10 01:25:00,73.7,72.2,29.73,SSW,197,0.0,0.0,95,0.00,,,0.24,Wunderground v.1.13,2013-07-10 06:25:00,
2013-07-10 01:30:00,73.7,72.2,29.73,SSW,197,0.0,0.0,95,0.00,,,0.24,Wunderground v.1.13,2013-07-10 06:30:00,
2013-07-10 01:40:00,73.5,72.0,29.73,SSW,197,0.0,0.0,95,0.00,,,0.24,Wunderground v.1.13,2013-07-10 06:40:00,
2013-07-10 01:50:00,73.5,72.0,29.73,SSW,197,0.0,0.0,95,0.00,,,0.24,Wunderground v.1.13,2013-07-10 06:50:00,
2013-07-10 02:00:00,73.2,71.7,29.73,SSW,197,0.0,0.0,95,0.00,,,0.24,Wunderground v.1.13,2013-07-10 07:00:00,
2013-07-10 02:05:00,73.0,71.5,29.73,SSW,197,0.0,0.0,95,0.00,,,0.24,Wunderground v.1.13,2013-07-10 07:05:00,
2013-07-10 02:15:00,72.7,71.2,29.73,SSW,197,0.0,0.0,95,0.00,,,0.24,Wunderground v.1.13,2013-07-10 07:15:00,
2013-07-10 02:25:00,72.5,71.3,29.73,SSW,197,0.0,0.0,96,0.00,,,0.24,Wunderground v.1.13,2013-07-10 07:25:00,
2013-07-10 02:30:00,72.5,71.3,29.73,SSW,197,0.0,0.0,96,0.00,,,0.24,Wunderground v.1.13,2013-07-10 07:30:00,
2013-07-10 02:40:00,72.3,71.1,29.73,SSW,197,0.0,0.0,96,0.00,,,0.24,Wunderground v.1.13,2013-07-10 07:40:00,
2013-07-10 02:50:00,72.3,71.1,29.74,SSW,197,0.0,0.0,96,0.00,,,0.24,Wunderground v.1.13,2013-07-10 07:50:00,
2013-07-10 02:55:00,72.1,70.9,29.74,SSW,197,0.0,0.0,96,0.00,,,0.24,Wunderground v.1.13,2013-07-10 07:55:00,
2013-07-10 03:00:00,72.0,70.8,29.74,SSW,197,0.0,0.0,96,0.00,,,0.24,Wunderground v.1.13,2013-07-10 08:00:00,
2013-07-10 03:05:00,71.8,70.6,29.74,SSW,197,0.0,0.0,96,0.00,,,0.24,Wunderground v.1.13,2013-07-10 08:05:00,
2013-07-10 03:15:00,71.8,70.6,29.73,SSW,197,0.0,0.0,96,0.00,,,0.24,Wunderground v.1.13,2013-07-10 08:15:00,
2013-07-10 03:25:00,71.6,70.4,29.73,SSW,197,0.0,0.0,96,0.00,,,0.24,Wunderground v.1.13,2013-07-10 08:25:00,
2013-07-10 03:35:00,71.5,70.3,29.73,SSW,197,0.0,0.0,96,0.00,,,0.24,Wunderground v.1.13,2013-07-10 08:35:00,
2013-07-10 03:45:00,71.3,70.1,29.73,SSW,197,0.0,0.0,96,0.00,,,0.24,Wunderground v.1.13,2013-07-10 08:45:00,
2013-07-10 03:50:00,71.1,69.9,29.73,SSW,197,0.0,0.0,96,0.00,,,0.24,Wunderground v.1.13,2013-07-10 08:50:00,
2013-07-10 03:55:00,71.3,70.1,29.73,SSW,197,0.0,0.0,96,0.00,,,0.24,Wunderground v.1.13,2013-07-10 08:55:00,
2013-07-10 04:05:00,71.5,70.3,29.74,SSW,197,0.0,0.0,96,0.00,,,0.24,Wunderground v.1.13,2013-07-10 09:05:00,
2013-07-10 04:15:00,71.6,70.4,29.74,SSW,197,0.0,0.0,96,0.00,,,0.24,Wunderground v.1.13,2013-07-10 09:15:00,
2013-07-10 04:25:00,71.8,70.6,29.74,SSW,198,0.0,1.0,96,0.00,,,0.24,Wunderground v.1.13,2013-07-10 09:25:00,
2013-07-10 04:30:00,71.8,70.3,29.74,SSW,198,0.0,1.0,95,0.00,,,0.24,Wunderground v.1.13,2013-07-10 09:30:00,
2013-07-10 04:40:00,71.8,70.3,29.74,West,281,0.0,1.0,95,0.00,,,0.24,Wunderground v.1.13,2013-07-10 09:40:00,
2013-07-10 04:45:00,71.6,70.1,29.75,West,281,0.0,1.0,95,0.00,,,0.24,Wunderground v.1.13,2013-07-10 09:45:00,
2013-07-10 04:55:00,71.6,69.8,29.75,West,281,0.0,1.0,94,0.00,,,0.24,Wunderground v.1.13,2013-07-10 09:55:00,
2013-07-10 05:05:00,71.5,69.7,29.75,WNW,284,1.0,4.0,94,0.00,,,0.24,Wunderground v.1.13,2013-07-10 10:05:00,
2013-07-10 05:15:00,71.3,69.2,29.75,West,281,1.0,1.0,93,0.00,,,0.24,Wunderground v.1.13,2013-07-10 10:15:00,
2013-07-10 05:25:00,71.1,68.7,29.75,West,275,3.0,4.0,92,0.00,,,0.24,Wunderground v.1.13,2013-07-10 10:25:00,
2013-07-10 05:30:00,71.1,68.3,29.75,West,277,2.0,2.0,91,0.00,,,0.24,Wunderground v.1.13,2013-07-10 10:30:00,
2013-07-10 05:40:00,71.1,68.0,29.75,West,279,2.0,7.0,90,0.00,,,0.24,Wunderground v.1.13,2013-07-10 10:40:00,
2013-07-10 05:45:00,71.3,67.9,29.76,West,280,2.0,7.0,89,0.00,,,0.24,Wunderground v.1.13,2013-07-10 10:45:00,
2013-07-10 05:55:00,71.5,67.8,29.76,West,281,4.0,7.0,88,0.00,,,0.24,Wunderground v.1.13,2013-07-10 10:55:00,
2013-07-10 06:00:00,71.5,67.8,29.76,WNW,286,4.0,7.0,88,0.00,,,0.24,Wunderground v.1.13,2013-07-10 11:00:00,
2013-07-10 06:05:00,71.8,67.7,29.76,West,281,5.0,10.0,87,0.00,,,0.24,Wunderground v.1.13,2013-07-10 11:05:00,
2013-07-10 06:15:00,72.1,67.7,29.75,West,270,6.0,9.0,86,0.00,,,0.00,Wunderground v.1.13,2013-07-10 11:15:00,
2013-07-10 06:25:00,72.3,67.5,29.75,WSW,250,5.0,5.0,85,0.00,,,0.00,Wunderground v.1.13,2013-07-10 11:25:00,
2013-07-10 06:35:00,72.5,67.7,29.75,WNW,298,5.0,12.0,85,0.00,,,0.00,Wunderground v.1.13,2013-07-10 11:35:00,
2013-07-10 06:45:00,72.5,67.7,29.76,NW,309,6.0,12.0,85,0.00,,,0.00,Wunderground v.1.13,2013-07-10 11:45:00,
2013-07-10 06:55:00,72.3,67.5,29.76,WNW,286,6.0,6.0,85,0.00,,,0.00,Wunderground v.1.13,2013-07-10 11:55:00,
2013-07-10 07:05:00,72.5,67.4,29.76,NW,325,6.0,12.0,84,0.00,,,0.00,Wunderground v.1.13,2013-07-10 12:05:00,
2013-07-10 07:15:00,72.5,67.4,29.76,NW,308,6.0,6.0,84,0.00,,,0.00,Wunderground v.1.13,2013-07-10 12:15:00,
2013-07-10 07:20:00,72.5,67.4,29.76,WNW,300,6.0,6.0,84,0.00,,,0.00,Wunderground v.1.13,2013-07-10 12:20:00,
2013-07-10 07:30:00,72.7,66.5,29.77,NW,306,6.0,12.0,81,0.00,,,0.00,Wunderground v.1.13,2013-07-10 12:30:00,
2013-07-10 07:35:00,72.5,65.6,29.77,NW,304,8.0,8.0,79,0.00,,,0.00,Wunderground v.1.13,2013-07-10 12:35:00,
2013-07-10 07:45:00,72.7,65.8,29.77,WNW,296,6.0,6.0,79,0.00,,,0.00,Wunderground v.1.13,2013-07-10 12:45:00,
2013-07-10 07:55:00,72.8,65.2,29.77,NNW,334,6.0,14.0,77,0.00,,,0.00,Wunderground v.1.13,2013-07-10 12:55:00,
2013-07-10 08:00:00,73.0,65.0,29.77,NW,313,7.0,7.0,76,0.00,,,0.00,Wunderground v.1.13,2013-07-10 13:00:00,
2013-07-10 08:05:00,73.2,64.4,29.77,NW,311,7.0,7.0,74,0.00,,,0.00,Wunderground v.1.13,2013-07-10 13:05:00,
2013-07-10 08:15:00,73.9,63.1,29.78,WNW,297,7.0,15.0,69,0.00,,,0.00,Wunderground v.1.13,2013-07-10 13:15:00,
2013-07-10 08:25:00,73.9,62.7,29.78,North,355,8.0,8.0,68,0.00,,,0.00,Wunderground v.1.13,2013-07-10 13:25:00,
2013-07-10 08:35:00,73.5,61.4,29.79,WNW,301,7.0,7.0,66,0.00,,,0.00,Wunderground v.1.13,2013-07-10 13:35:00,
2013-07-10 08:45:00,73.9,61.8,29.80,NW,309,7.0,7.0,66,0.00,,,0.00,Wunderground v.1.13,2013-07-10 13:45:00,
2013-07-10 08:55:00,74.4,64.4,29.80,NW,317,5.0,19.0,71,0.00,,,0.00,Wunderground v.1.13,2013-07-10 13:55:00,
2013-07-10 09:00:00,73.9,64.7,29.80,West,281,6.0,19.0,73,0.00,,,0.00,Wunderground v.1.13,2013-07-10 14:00:00,
2013-07-10 09:05:00,73.0,64.2,29.80,WNW,294,6.0,19.0,74,0.00,,,0.00,Wunderground v.1.13,2013-07-10 14:05:00,
2013-07-10 09:15:00,72.1,63.4,29.81,West,268,5.0,19.0,74,0.00,,,0.00,Wunderground v.1.13,2013-07-10 14:15:00,
2013-07-10 09:25:00,72.5,60.5,29.81,NNE,29,6.0,19.0,66,0.00,,,0.00,Wunderground v.1.13,2013-07-10 14:25:00,
2013-07-10 09:30:00,73.2,61.2,29.81,West,279,7.0,19.0,66,0.00,,,0.00,Wunderground v.1.13,2013-07-10 14:30:00,
2013-07-10 09:40:00,73.3,60.4,29.81,NNW,334,7.0,7.0,64,0.00,,,0.00,Wunderground v.1.13,2013-07-10 14:40:00,
2013-07-10 09:45:00,73.3,60.8,29.82,NW,308,7.0,14.0,65,0.00,,,0.00,Wunderground v.1.13,2013-07-10 14:45:00,
2013-07-10 09:50:00,73.5,59.7,29.82,NNW,328,7.0,14.0,62,0.00,,,0.00,Wunderground v.1.13,2013-07-10 14:50:00,
2013-07-10 10:00:00,73.9,59.6,29.81,WNW,302,9.0,9.0,61,0.00,,,0.00,Wunderground v.1.13,2013-07-10 15:00:00,
2013-07-10 10:05:00,74.2,59.4,29.81,NW,322,8.0,16.0,60,0.00,,,0.00,Wunderground v.1.13,2013-07-10 15:05:00,
2013-07-10 10:15:00,74.2,59.4,29.82,WNW,300,7.0,16.0,60,0.00,,,0.00,Wunderground v.1.13,2013-07-10 15:15:00,
2013-07-10 10:25:00,74.0,59.7,29.82,West,280,7.0,16.0,61,0.00,,,0.00,Wunderground v.1.13,2013-07-10 15:25:00,
2013-07-10 10:35:00,74.4,59.1,29.81,North,351,8.0,20.0,59,0.00,,,0.00,Wunderground v.1.13,2013-07-10 15:35:00,
2013-07-10 10:45:00,74.4,58.2,29.82,NW,317,9.0,20.0,57,0.00,,,0.00,Wunderground v.1.13,2013-07-10 15:45:00,
2013-07-10 10:50:00,74.7,58.9,29.82,WNW,301,7.0,7.0,58,0.00,,,0.00,Wunderground v.1.13,2013-07-10 15:50:00,
2013-07-10 11:00:00,74.6,57.4,29.82,NNW,333,8.0,8.0,55,0.00,,,0.00,Wunderground v.1.13,2013-07-10 16:00:00,
2013-07-10 11:05:00,74.6,57.4,29.82,West,266,8.0,20.0,55,0.00,,,0.00,Wunderground v.1.13,2013-07-10 16:05:00,
2013-07-10 11:15:00,74.0,57.8,29.82,WNW,300,8.0,8.0,57,0.00,,,0.00,Wunderground v.1.13,2013-07-10 16:15:00,
2013-07-10 11:20:00,74.0,57.3,29.82,WNW,297,7.0,7.0,56,0.00,,,0.00,Wunderground v.1.13,2013-07-10 16:20:00,
2013-07-10 11:25:00,74.4,56.2,29.82,WNW,294,7.0,7.0,53,0.00,,,0.00,Wunderground v.1.13,2013-07-10 16:25:00,
2013-07-10 11:30:00,74.4,55.6,29.84,WNW,301,7.0,7.0,52,0.00,,,0.00,Wunderground v.1.13,2013-07-10 16:30:00,
2013-07-10 11:40:00,74.4,55.6,29.84,NNE,28,6.0,6.0,52,0.00,,,0.00,Wunderground v.1.13,2013-07-10 16:40:00,
2013-07-10 11:45:00,74.6,56.3,29.84,NW,316,5.0,18.0,53,0.00,,,0.00,Wunderground v.1.13,2013-07-10 16:45:00,
2013-07-10 11:50:00,75.1,55.7,29.84,WNW,282,6.0,18.0,51,0.00,,,0.00,Wunderground v.1.13,2013-07-10 16:50:00,
2013-07-10 11:55:00,75.3,57.0,29.84,NW,313,7.0,7.0,53,0.00,,,0.00,Wunderground v.1.13,2013-07-10 16:55:00,
2013-07-10 12:05:00,75.4,57.1,29.85,NW,319,5.0,5.0,53,0.00,,,0.00,Wunderground v.1.13,2013-07-10 17:05:00,
2013-07-10 12:15:00,75.1,56.8,29.85,NW,306,6.0,14.0,53,0.00,,,0.00,Wunderground v.1.13,2013-07-10 17:15:00,
2013-07-10 12:25:00,75.6,56.2,29.85,WNW,294,6.0,14.0,51,0.00,,,0.00,Wunderground v.1.13,2013-07-10 17:25:00,
2013-07-10 12:35:00,74.9,55.6,29.85,NW,317,7.0,7.0,51,0.00,,,0.00,Wunderground v.1.13,2013-07-10 17:35:00,
2013-07-10 12:45:00,75.3,55.4,29.86,WNW,297,6.0,13.0,50,0.00,,,0.00,Wunderground v.1.13,2013-07-10 17:45:00,
2013-07-10 12:50:00,75.6,53.9,29.86,West,275,7.0,13.0,47,0.00,,,0.00,Wunderground v.1.13,2013-07-10 17:50:00,
2013-07-10 13:00:00,76.0,55.5,29.86,West,267,7.0,13.0,49,0.00,,,0.00,Wunderground v.1.13,2013-07-10 18:00:00,
2013-07-10 13:05:00,75.8,54.7,29.86,NW,311,6.0,6.0,48,0.00,,,0.00,Wunderground v.1.13,2013-07-10 18:05:00,
2013-07-10 13:15:00,75.3,55.4,29.86,West,281,6.0,6.0,50,0.00,,,0.00,Wunderground v.1.13,2013-07-10 18:15:00,
2013-07-10 13:25:00,75.1,54.6,29.86,North,360,5.0,14.0,49,0.00,,,0.00,Wunderground v.1.13,2013-07-10 18:25:00,
2013-07-10 13:30:00,75.3,55.4,29.86,West,277,7.0,7.0,50,0.00,,,0.00,Wunderground v.1.13,2013-07-10 18:30:00,
2013-07-10 13:35:00,75.6,52.1,29.86,West,274,6.0,16.0,44,0.00,,,0.00,Wunderground v.1.13,2013-07-10 18:35:00,
2013-07-10 13:45:00,76.5,54.8,29.86,West,272,6.0,16.0,47,0.00,,,0.00,Wunderground v.1.13,2013-07-10 18:45:00,
2013-07-10 13:55:00,76.7,55.0,29.86,WNW,284,7.0,16.0,47,0.00,,,0.00,Wunderground v.1.13,2013-07-10 18:55:00,
2013-07-10 14:05:00,76.8,55.0,29.86,West,281,8.0,8.0,47,0.00,,,0.00,Wunderground v.1.13,2013-07-10 19:05:00,
2013-07-10 14:15:00,77.4,53.8,29.86,West,272,7.0,7.0,44,0.00,,,0.00,Wunderground v.1.13,2013-07-10 19:15:00,
2013-07-10 14:25:00,77.2,55.4,29.86,WNW,300,6.0,12.0,47,0.00,,,0.00,Wunderground v.1.13,2013-07-10 19:25:00,
2013-07-10 14:30:00,77.2,53.6,29.86,WNW,300,7.0,7.0,44,0.00,,,0.00,Wunderground v.1.13,2013-07-10 19:30:00,
2013-07-10 14:40:00,77.2,54.8,29.86,West,269,5.0,19.0,46,0.00,,,0.00,Wunderground v.1.13,2013-07-10 19:40:00,
2013-07-10 14:45:00,77.2,54.2,29.86,WNW,291,6.0,19.0,45,0.00,,,0.00,Wunderground v.1.13,2013-07-10 19:45:00,
2013-07-10 14:55:00,76.7,54.4,29.86,WNW,294,7.0,19.0,46,0.00,,,0.00,Wunderground v.1.13,2013-07-10 19:55:00,
2013-07-10 15:00:00,76.8,53.8,29.86,NW,317,7.0,7.0,45,0.00,,,0.00,Wunderground v.1.13,2013-07-10 20:00:00,
2013-07-10 15:05:00,77.2,53.6,29.86,WNW,288,7.0,14.0,44,0.00,,,0.00,Wunderground v.1.13,2013-07-10 20:05:00,
2013-07-10 15:15:00,77.7,54.0,29.86,North,360,6.0,14.0,44,0.00,,,0.00,Wunderground v.1.13,2013-07-10 20:15:00,
2013-07-10 15:20:00,77.7,52.8,29.86,NNW,331,6.0,6.0,42,0.00,,,0.00,Wunderground v.1.13,2013-07-10 20:20:00,
2013-07-10 15:25:00,77.7,54.7,29.86,NW,309,6.0,14.0,45,0.00,,,0.00,Wunderground v.1.13,2013-07-10 20:25:00,
2013-07-10 15:30:00,77.6,54.0,29.86,WNW,292,7.0,7.0,44,0.00,,,0.00,Wunderground v.1.13,2013-07-10 20:30:00,
2013-07-10 15:40:00,77.7,53.4,29.86,NW,310,6.0,14.0,43,0.00,,,0.00,Wunderground v.1.13,2013-07-10 20:40:00,
2013-07-10 15:45:00,77.7,53.4,29.86,West,278,6.0,6.0,43,0.00,,,0.00,Wunderground v.1.13,2013-07-10 20:45:00,
2013-07-10 15:50:00,77.6,54.0,29.86,NNW,332,5.0,14.0,44,0.00,,,0.00,Wunderground v.1.13,2013-07-10 20:50:00,
2013-07-10 16:00:00,78.1,54.4,29.85,WNW,294,4.0,14.0,44,0.00,,,0.00,Wunderground v.1.13,2013-07-10 21:00:00,
2013-07-10 16:05:00,78.3,54.0,29.85,WNW,299,6.0,6.0,43,0.00,,,0.00,Wunderground v.1.13,2013-07-10 21:05:00,
2013-07-10 16:15:00,78.1,54.4,29.84,WNW,302,5.0,15.0,44,0.00,,,0.00,Wunderground v.1.13,2013-07-10 21:15:00,
2013-07-10 16:25:00,77.6,54.6,29.84,NW,311,6.0,15.0,45,0.00,,,0.00,Wunderground v.1.13,2013-07-10 21:25:00,
2013-07-10 16:30:00,77.0,55.2,29.85,WNW,284,5.0,15.0,47,0.00,,,0.00,Wunderground v.1.13,2013-07-10 21:30:00,
2013-07-10 16:35:00,76.8,53.8,29.85,West,265,5.0,14.0,45,0.00,,,0.00,Wunderground v.1.13,2013-07-10 21:35:00,
2013-07-10 16:45:00,76.7,55.0,29.85,WNW,295,7.0,14.0,47,0.00,,,0.00,Wunderground v.1.13,2013-07-10 21:45:00,
2013-07-10 16:55:00,76.0,54.9,29.85,West,277,4.0,4.0,48,0.00,,,0.00,Wunderground v.1.13,2013-07-10 21:55:00,
2013-07-10 17:05:00,75.6,55.1,29.85,NW,306,2.0,2.0,49,0.00,,,0.00,Wunderground v.1.13,2013-07-10 22:05:00,
2013-07-10 17:15:00,75.3,54.8,29.85,North,355,3.0,13.0,49,0.00,,,0.00,Wunderground v.1.13,2013-07-10 22:15:00,
2013-07-10 17:25:00,75.8,54.7,29.85,WNW,300,5.0,5.0,48,0.00,,,0.00,Wunderground v.1.13,2013-07-10 22:25:00,
2013-07-10 17:30:00,76.3,55.7,29.84,WNW,286,5.0,13.0,49,0.00,,,0.00,Wunderground v.1.13,2013-07-10 22:30:00,
2013-07-10 17:40:00,76.5,55.9,29.84,WNW,288,5.0,5.0,49,0.00,,,0.00,Wunderground v.1.13,2013-07-10 22:40:00,
2013-07-10 17:45:00,76.8,55.6,29.84,WNW,296,4.0,11.0,48,0.00,,,0.00,Wunderground v.1.13,2013-07-10 22:45:00,
2013-07-10 17:55:00,77.2,56.0,29.84,WNW,290,4.0,11.0,48,0.00,,,0.00,Wunderground v.1.13,2013-07-10 22:55:00,
2013-07-10 18:05:00,77.2,55.4,29.84,NW,316,4.0,4.0,47,0.00,,,0.00,Wunderground v.1.13,2013-07-10 23:05:00,
2013-07-10 18:15:00,76.7,55.5,29.84,NW,322,5.0,5.0,48,0.00,,,0.00,Wunderground v.1.13,2013-07-10 23:15:00,
2013-07-10 18:25:00,76.3,55.2,29.84,NNW,344,3.0,10.0,48,0.00,,,0.00,Wunderground v.1.13,2013-07-10 23:25:00,
2013-07-10 18:30:00,76.5,55.9,29.84,West,273,3.0,3.0,49,0.00,,,0.00,Wunderground v.1.13,2013-07-10 23:30:00,
2013-07-10 18:40:00,76.5,55.9,29.84,WNW,286,3.0,3.0,49,0.00,,,0.00,Wunderground v.1.13,2013-07-10 23:40:00,
2013-07-10 18:50:00,76.3,55.2,29.84,West,277,4.0,4.0,48,0.00,,,0.00,Wunderground v.1.13,2013-07-10 23:50:00,
2013-07-10 19:00:00,76.0,54.9,29.85,NW,315,5.0,11.0,48,0.00,,,0.00,Wunderground v.1.13,2013-07-11 00:00:00,
2013-07-10 19:05:00,75.8,55.3,29.85,WNW,303,5.0,5.0,49,0.00,,,0.00,Wunderground v.1.13,2013-07-11 00:05:00,
2013-07-10 19:15:00,75.4,55.5,29.85,WNW,301,3.0,9.0,50,0.00,,,0.00,Wunderground v.1.13,2013-07-11 00:15:00,
2013-07-10 19:25:00,75.3,55.9,29.85,NW,323,1.0,9.0,51,0.00,,,0.00,Wunderground v.1.13,2013-07-11 00:25:00,
2013-07-10 19:35:00,75.1,56.3,29.85,NW,307,1.0,1.0,52,0.00,,,0.00,Wunderground v.1.13,2013-07-11 00:35:00,
2013-07-10 19:45:00,74.7,56.4,29.85,NW,308,0.0,10.0,53,0.00,,,0.00,Wunderground v.1.13,2013-07-11 00:45:00,
2013-07-10 19:55:00,74.2,56.5,29.85,NW,308,0.0,10.0,54,0.00,,,0.00,Wunderground v.1.13,2013-07-11 00:55:00,
2013-07-10 20:05:00,73.3,56.7,29.86,NW,311,0.0,8.0,56,0.00,,,0.00,Wunderground v.1.13,2013-07-11 01:05:00,
2013-07-10 20:15:00,72.7,57.1,29.86,NW,311,0.0,8.0,58,0.00,,,0.00,Wunderground v.1.13,2013-07-11 01:15:00,
2013-07-10 20:25:00,72.0,57.4,29.86,NW,311,0.0,8.0,60,0.00,,,0.00,Wunderground v.1.13,2013-07-11 01:25:00,
2013-07-10 20:35:00,71.3,57.2,29.86,NW,311,0.0,8.0,61,0.00,,,0.00,Wunderground v.1.13,2013-07-11 01:35:00,
2013-07-10 20:45:00,70.8,57.1,29.87,NW,311,0.0,8.0,62,0.00,,,0.00,Wunderground v.1.13,2013-07-11 01:45:00,
2013-07-10 20:50:00,70.4,57.2,29.87,NW,311,0.0,8.0,63,0.00,,,0.00,Wunderground v.1.13,2013-07-11 01:50:00,
2013-07-10 21:00:00,69.6,57.3,29.88,NW,311,0.0,8.0,65,0.00,,,0.00,Wunderground v.1.13,2013-07-11 02:00:00,
2013-07-10 21:05:00,69.1,57.3,29.88,NW,311,0.0,0.0,66,0.00,,,0.00,Wunderground v.1.13,2013-07-11 02:05:00,
2013-07-10 21:15:00,68.3,57.7,29.88,NW,311,0.0,0.0,69,0.00,,,0.00,Wunderground v.1.13,2013-07-11 02:15:00,
2013-07-10 21:20:00,67.8,57.3,29.88,NW,311,0.0,0.0,69,0.00,,,0.00,Wunderground v.1.13,2013-07-11 02:20:00,
2013-07-10 21:25:00,67.4,57.3,29.88,NW,311,0.0,0.0,70,0.00,,,0.00,Wunderground v.1.13,2013-07-11 02:25:00,
2013-07-10 21:35:00,66.8,57.5,29.90,NW,311,0.0,0.0,72,0.00,,,0.00,Wunderground v.1.13,2013-07-11 02:35:00,
2013-07-10 21:45:00,66.3,57.8,29.90,NW,311,0.0,0.0,74,0.00,,,0.00,Wunderground v.1.13,2013-07-11 02:45:00,
2013-07-10 21:55:00,66.0,58.2,29.90,NW,311,0.0,0.0,76,0.00,,,0.00,Wunderground v.1.13,2013-07-11 02:55:00,
2013-07-10 22:05:00,65.5,58.1,29.90,NW,311,0.0,0.0,77,0.00,,,0.00,Wunderground v.1.13,2013-07-11 03:05:00,
2013-07-10 22:15:00,65.2,58.2,29.90,NW,311,0.0,0.0,78,0.00,,,0.00,Wunderground v.1.13,2013-07-11 03:15:00,
2013-07-10 22:25:00,65.2,58.2,29.90,NW,311,0.0,0.0,78,0.00,,,0.00,Wunderground v.1.13,2013-07-11 03:25:00,
2013-07-10 22:30:00,65.2,58.2,29.90,NW,311,0.0,0.0,78,0.00,,,0.00,Wunderground v.1.13,2013-07-11 03:30:00,
2013-07-10 22:35:00,65.2,57.8,29.90,NW,311,0.0,0.0,77,0.00,,,0.00,Wunderground v.1.13,2013-07-11 03:35:00,
2013-07-10 22:40:00,65.3,57.9,29.90,NW,311,0.0,0.0,77,0.00,,,0.00,Wunderground v.1.13,2013-07-11 03:40:00,
2013-07-10 22:45:00,65.5,57.7,29.90,NW,311,0.0,0.0,76,0.00,,,0.00,Wunderground v.1.13,2013-07-11 03:45:00,
2013-07-10 22:50:00,65.5,57.7,29.90,NW,311,0.0,0.0,76,0.00,,,0.00,Wunderground v.1.13,2013-07-11 03:50:00,
2013-07-10 23:00:00,65.5,57.4,29.91,NW,311,0.0,0.0,75,0.00,,,0.00,Wunderground v.1.13,2013-07-11 04:00:00,
2013-07-10 23:05:00,65.6,57.5,29.91,NW,311,0.0,0.0,75,0.00,,,0.00,Wunderground v.1.13,2013-07-11 04:05:00,
2013-07-10 23:10:00,65.6,57.5,29.91,NW,311,0.0,0.0,75,0.00,,,0.00,Wunderground v.1.13,2013-07-11 04:10:00,
2013-07-10 23:15:00,65.6,57.5,29.91,NW,311,0.0,0.0,75,0.00,,,0.00,Wunderground v.1.13,2013-07-11 04:15:00,
2013-07-10 23:25:00,65.6,57.5,29.91,NW,311,0.0,0.0,75,0.00,,,0.00,Wunderground v.1.13,2013-07-11 04:25:00,
2013-07-10 23:35:00,65.3,57.2,29.91,NW,311,0.0,0.0,75,0.00,,,0.00,Wunderground v.1.13,2013-07-11 04:35:00,
2013-07-10 23:40:00,65.2,57.4,29.91,NW,311,0.0,0.0,76,0.00,,,0.00,Wunderground v.1.13,2013-07-11 04:40:00,
2013-07-10 23:50:00,64.8,57.8,29.92,NW,311,0.0,0.0,78,0.00,,,0.00,Wunderground v.1.13,2013-07-11 04:50:00,
2013-07-10 23:55:00,64.7,57.7,29.92,NW,311,0.0,0.0,78,0.00,,,0.00,Wunderground v.1.13,2013-07-11 04:55:00,